createdAt,value
2018-03-26T00:02:05.332Z,26.73
2018-03-26T00:04:33.595Z,26.20
2018-03-26T00:07:01.868Z,26.87
2018-03-26T00:09:30.122Z,26.83
2018-03-26T00:11:59.157Z,28.53
2018-03-26T00:14:27.415Z,27.30
2018-03-26T00:16:56.464Z,29.30
2018-03-26T00:19:24.716Z,27.07
2018-03-26T00:21:53.133Z,28.57
2018-03-26T00:24:22.094Z,27.23
2018-03-26T00:26:50.362Z,26.10
2018-03-26T00:29:18.622Z,27.07
2018-03-26T00:31:47.666Z,26.83
2018-03-26T00:34:15.926Z,26.13
2018-03-26T00:36:44.209Z,26.97
2018-03-26T00:39:13.234Z,28.00
2018-03-26T00:41:41.521Z,28.33
2018-03-26T00:44:09.785Z,27.07
2018-03-26T00:46:38.049Z,27.57
2018-03-26T00:49:06.313Z,28.80
2018-03-26T00:51:34.586Z,28.20
2018-03-26T00:54:02.842Z,26.87
2018-03-26T00:56:31.109Z,27.50
2018-03-26T00:58:59.363Z,27.97
2018-03-26T01:01:27.643Z,28.60
2018-03-26T01:03:55.913Z,27.43
2018-03-26T01:06:24.955Z,27.93
2018-03-26T01:08:53.215Z,28.83
2018-03-26T01:11:21.482Z,28.90
2018-03-26T01:13:50.500Z,28.40
2018-03-26T01:16:18.770Z,27.17
2018-03-26T01:18:47.034Z,28.63
2018-03-26T01:21:16.068Z,28.83
2018-03-26T01:23:44.322Z,26.60
2018-03-26T01:26:12.597Z,27.97
2018-03-26T01:28:41.641Z,29.10
2018-03-26T01:31:09.927Z,25.33
2018-03-26T01:33:38.181Z,29.53
2018-03-26T01:36:06.445Z,27.23
2018-03-26T01:38:34.701Z,27.17
2018-03-26T01:41:02.966Z,27.43
2018-03-26T01:43:31.228Z,28.10
2018-03-26T01:45:59.508Z,28.80
2018-03-26T01:48:27.796Z,29.70
2018-03-26T01:50:56.047Z,28.80
2018-03-26T01:53:24.327Z,28.43
2018-03-26T01:55:52.589Z,28.83
2018-03-26T01:58:21.617Z,27.60
2018-03-26T02:00:49.877Z,28.30
2018-03-26T02:03:18.148Z,27.37
2018-03-26T02:05:47.157Z,28.57
2018-03-26T02:08:16.187Z,30.87
2018-03-26T02:10:44.437Z,30.43
2018-03-26T02:13:13.477Z,30.37
2018-03-26T02:15:41.750Z,28.27
2018-03-26T02:18:10.046Z,29.53
2018-03-26T02:20:38.319Z,28.13
2018-03-26T02:23:06.577Z,28.23
2018-03-26T02:25:34.847Z,30.37
2018-03-26T02:28:03.858Z,30.30
2018-03-26T02:30:32.108Z,27.40
2018-03-26T02:33:01.135Z,29.23
2018-03-26T02:35:29.400Z,29.53
2018-03-26T02:37:58.537Z,29.87
2018-03-26T02:40:26.787Z,29.13
2018-03-26T02:42:55.067Z,28.77
2018-03-26T02:45:24.090Z,28.67
2018-03-26T02:47:52.354Z,30.37
2018-03-26T02:50:20.606Z,28.53
2018-03-26T02:52:48.862Z,30.27
2018-03-26T02:55:17.132Z,30.30
2018-03-26T02:57:45.417Z,28.60
2018-03-26T03:00:13.658Z,27.63
2018-03-26T03:02:42.685Z,31.63
2018-03-26T03:05:10.938Z,28.87
2018-03-26T03:07:39.243Z,28.60
2018-03-26T03:10:07.541Z,28.17
2018-03-26T03:12:36.592Z,29.00
2018-03-26T03:15:05.609Z,31.40
2018-03-26T03:17:33.881Z,30.40
2018-03-26T03:20:11.371Z,29.60
2018-03-26T03:22:40.425Z,29.67
2018-03-26T03:25:08.680Z,30.70
2018-03-26T03:27:36.947Z,31.17
2018-03-26T03:30:05.721Z,31.10
2018-03-26T03:32:34.054Z,29.50
2018-03-26T03:35:02.325Z,32.13
2018-03-26T03:37:30.609Z,30.67
2018-03-26T03:39:58.848Z,31.33
2018-03-26T03:42:27.882Z,31.10
2018-03-26T03:44:56.132Z,32.03
2018-03-26T03:47:25.160Z,30.37
2018-03-26T03:49:53.410Z,31.87
2018-03-26T03:52:22.440Z,30.70
2018-03-26T03:54:50.916Z,29.63
2018-03-26T03:57:19.174Z,31.90
2018-03-26T03:59:49.200Z,31.90
2018-03-26T04:02:18.242Z,30.40
2018-03-26T04:04:46.487Z,31.80
2018-03-26T04:07:14.752Z,29.90
2018-03-26T04:09:43.776Z,31.37
2018-03-26T04:12:12.050Z,32.20
2018-03-26T04:14:40.377Z,30.93
2018-03-26T04:17:08.651Z,30.87
2018-03-26T04:19:36.889Z,29.00
2018-03-26T04:22:05.150Z,32.10
2018-03-26T04:24:33.398Z,32.83
2018-03-26T04:27:01.671Z,30.70
2018-03-26T04:29:29.941Z,31.20
2018-03-26T04:31:59.203Z,32.33
2018-03-26T04:34:27.438Z,29.60
2018-03-26T04:36:55.712Z,31.87
2018-03-26T04:39:23.962Z,31.57
2018-03-26T04:41:52.986Z,30.57
2018-03-26T04:44:21.249Z,31.03
2018-03-26T04:46:49.495Z,30.57
2018-03-26T04:49:17.876Z,32.80
2018-03-26T04:51:46.116Z,33.03
2018-03-26T04:54:14.387Z,33.43
2018-03-26T04:56:42.685Z,33.00
2018-03-26T04:59:10.943Z,34.17
2018-03-26T05:01:39.212Z,31.03
2018-03-26T05:04:08.233Z,32.53
2018-03-26T05:06:36.474Z,29.60
2018-03-26T05:09:05.530Z,32.70
2018-03-26T05:11:33.761Z,33.00
2018-03-26T05:14:02.807Z,30.57
2018-03-26T05:16:31.057Z,30.27
2018-03-26T05:18:59.324Z,33.67
2018-03-26T05:21:28.264Z,32.20
2018-03-26T05:23:56.535Z,32.20
2018-03-26T05:26:24.789Z,32.97
2018-03-26T05:28:53.368Z,30.13
2018-03-26T05:31:22.433Z,31.17
2018-03-26T05:33:51.030Z,28.90
2018-03-26T05:36:19.257Z,31.60
2018-03-26T05:38:47.519Z,35.03
2018-03-26T05:41:16.531Z,29.60
2018-03-26T05:43:45.948Z,30.37
2018-03-26T05:46:14.226Z,29.67
2018-03-26T05:48:42.500Z,30.60
2018-03-26T05:51:10.758Z,30.53
2018-03-26T05:53:40.320Z,32.33
2018-03-26T05:56:08.603Z,29.30
2018-03-26T05:58:36.873Z,30.57
2018-03-26T06:01:05.148Z,29.60
2018-03-26T06:03:33.430Z,29.77
2018-03-26T06:06:01.673Z,28.13
2018-03-26T06:08:30.707Z,27.90
2018-03-26T06:10:58.964Z,29.90
2018-03-26T06:13:27.987Z,31.57
2018-03-26T06:15:56.274Z,30.40
2018-03-26T06:18:24.538Z,29.00
2018-03-26T06:20:52.810Z,27.87
2018-03-26T06:23:22.518Z,28.80
2018-03-26T06:25:51.540Z,28.07
2018-03-26T06:28:19.811Z,30.97
2018-03-26T06:30:48.074Z,30.00
2018-03-26T06:33:17.117Z,28.50
2018-03-26T06:35:45.358Z,28.70
2018-03-26T06:38:25.089Z,28.20
2018-03-26T06:40:53.331Z,28.33
2018-03-26T06:43:21.592Z,28.47
2018-03-26T06:45:49.844Z,29.47
2018-03-26T06:48:18.866Z,28.00
2018-03-26T06:50:47.131Z,27.73
2018-03-26T06:53:16.163Z,28.27
2018-03-26T06:55:44.483Z,29.07
2018-03-26T06:58:12.738Z,28.47
2018-03-26T07:00:40.994Z,26.23
2018-03-26T07:03:09.299Z,27.70
2018-03-26T07:05:37.550Z,27.73
2018-03-26T07:08:05.802Z,29.03
2018-03-26T07:10:34.813Z,28.63
2018-03-26T07:13:03.086Z,26.83
2018-03-26T07:15:32.125Z,30.20
2018-03-26T07:18:00.439Z,25.30
2018-03-26T07:20:28.679Z,27.07
2018-03-26T07:22:56.936Z,27.77
2018-03-26T07:25:25.198Z,25.37
2018-03-26T07:27:54.242Z,25.53
2018-03-26T07:30:22.503Z,26.00
2018-03-26T07:32:50.764Z,29.93
2018-03-26T07:35:19.783Z,30.63
2018-03-26T07:37:48.138Z,30.00
2018-03-26T07:40:17.197Z,29.60
2018-03-26T07:42:45.507Z,30.87
2018-03-26T07:45:13.790Z,30.57
2018-03-26T07:47:42.088Z,32.17
2018-03-26T07:50:11.456Z,29.90
2018-03-26T07:52:39.783Z,31.07
2018-03-26T07:55:08.832Z,31.50
2018-03-26T07:57:37.090Z,29.80
2018-03-26T08:00:05.347Z,32.10
2018-03-26T08:02:34.357Z,30.17
2018-03-26T08:05:02.930Z,29.60
2018-03-26T08:07:31.488Z,30.67
2018-03-26T08:10:00.076Z,29.77
2018-03-26T08:12:28.561Z,30.37
2018-03-26T08:14:57.148Z,30.13
2018-03-26T08:17:25.669Z,32.10
2018-03-26T08:19:54.325Z,28.80
2018-03-26T08:22:23.633Z,29.30
2018-03-26T08:24:52.223Z,26.83
2018-03-26T08:27:21.628Z,29.77
2018-03-26T08:29:50.228Z,28.97
2018-03-26T08:32:19.520Z,28.83
2018-03-26T08:34:48.723Z,27.27
2018-03-26T08:37:18.032Z,25.33
2018-03-26T08:39:46.389Z,25.23
2018-03-26T08:42:14.727Z,23.63
2018-03-26T08:44:42.945Z,22.47
2018-03-26T08:47:11.202Z,22.90
2018-03-26T08:49:39.514Z,23.23
2018-03-26T08:52:07.777Z,23.00
2018-03-26T08:54:36.085Z,22.23
2018-03-26T08:57:04.342Z,24.20
2018-03-26T08:59:32.666Z,21.40
2018-03-26T09:02:00.979Z,21.63
2018-03-26T09:04:29.257Z,25.07
2018-03-26T09:06:57.540Z,22.40
2018-03-26T09:09:25.810Z,21.93
2018-03-26T09:11:54.145Z,22.23
2018-03-26T09:14:22.421Z,22.30
2018-03-26T09:16:50.698Z,22.10
2018-03-26T09:19:18.955Z,23.00
2018-03-26T09:21:47.289Z,22.97
2018-03-26T09:24:15.554Z,23.70
2018-03-26T09:26:43.824Z,23.13
2018-03-26T09:29:12.093Z,23.10
2018-03-26T09:31:40.343Z,20.47
2018-03-26T09:34:08.621Z,21.73
2018-03-26T09:36:37.851Z,21.67
2018-03-26T09:39:06.154Z,22.20
2018-03-26T09:41:34.399Z,21.10
2018-03-26T09:44:02.684Z,19.77
2018-03-26T09:46:30.944Z,19.93
2018-03-26T09:48:59.978Z,19.97
2018-03-26T09:51:28.229Z,20.60
2018-03-26T09:53:57.268Z,20.20
2018-03-26T09:56:25.527Z,20.00
2018-03-26T09:58:53.815Z,22.10
2018-03-26T10:01:22.078Z,22.10
2018-03-26T10:03:50.357Z,21.77
2018-03-26T10:06:18.624Z,20.50
2018-03-26T10:08:47.665Z,20.33
2018-03-26T10:11:15.928Z,22.13
2018-03-26T10:13:44.225Z,22.07
2018-03-26T10:16:12.518Z,21.40
2018-03-26T10:18:40.786Z,22.33
2018-03-26T10:21:09.076Z,21.40
2018-03-26T10:23:37.372Z,21.07
2018-03-26T10:26:05.631Z,21.93
2018-03-26T10:28:33.898Z,23.47
2018-03-26T10:31:02.165Z,23.40
2018-03-26T10:33:30.454Z,21.20
2018-03-26T10:35:58.706Z,22.33
2018-03-26T10:38:27.759Z,21.97
2018-03-26T10:40:56.031Z,23.13
2018-03-26T10:43:24.307Z,22.13
2018-03-26T10:45:52.558Z,21.10
2018-03-26T10:48:21.575Z,23.40
2018-03-26T10:50:49.838Z,23.30
2018-03-26T10:53:19.672Z,23.47
2018-03-26T10:55:47.944Z,22.70
2018-03-26T10:58:16.962Z,21.07
2018-03-26T11:00:45.583Z,21.80
2018-03-26T11:03:13.929Z,22.93
2018-03-26T11:05:42.572Z,23.07
2018-03-26T11:08:11.265Z,25.40
2018-03-26T11:10:40.673Z,21.77
2018-03-26T11:13:09.165Z,22.00
2018-03-26T11:15:37.565Z,22.80
2018-03-26T11:18:05.964Z,23.20
2018-03-26T11:20:34.647Z,25.37
2018-03-26T11:23:03.770Z,25.17
2018-03-26T11:25:32.034Z,24.40
2018-03-26T11:28:01.087Z,25.40
2018-03-26T11:30:29.348Z,26.10
2018-03-26T11:32:57.606Z,23.80
2018-03-26T11:35:25.878Z,26.27
2018-03-26T11:37:54.142Z,27.83
2018-03-26T11:40:23.177Z,27.70
2018-03-26T11:42:51.446Z,27.57
2018-03-26T11:45:19.725Z,26.37
2018-03-26T11:47:47.969Z,27.67
2018-03-26T11:50:17.009Z,26.83
2018-03-26T11:52:45.261Z,28.17
2018-03-26T11:55:14.363Z,26.60
2018-03-26T11:57:42.581Z,29.30
2018-03-26T12:00:10.854Z,31.67
2018-03-26T12:02:39.133Z,27.80
2018-03-26T12:05:07.761Z,28.27
2018-03-26T12:07:36.348Z,28.63
2018-03-26T12:10:04.835Z,30.17
2018-03-26T12:12:33.365Z,30.77
2018-03-26T12:15:02.059Z,31.30
2018-03-26T12:17:30.611Z,31.60
2018-03-26T12:20:12.246Z,29.10
2018-03-26T12:22:40.514Z,30.90
2018-03-26T12:25:11.483Z,32.87
2018-03-26T12:27:51.869Z,33.03
2018-03-26T12:30:21.038Z,29.97
2018-03-26T12:32:49.290Z,29.50
2018-03-26T12:35:30.279Z,31.80
2018-03-26T12:37:59.680Z,29.43
2018-03-26T12:40:40.564Z,30.97
2018-03-26T12:43:09.800Z,31.47
2018-03-26T12:45:49.812Z,33.30
2018-03-26T12:48:18.828Z,32.67
2018-03-26T12:50:59.096Z,34.33
2018-03-26T12:53:27.349Z,35.10
2018-03-26T12:55:56.378Z,32.30
2018-03-26T12:58:36.898Z,31.17
2018-03-26T13:01:17.239Z,32.77
2018-03-26T13:03:45.658Z,33.77
2018-03-26T13:06:15.048Z,31.90
2018-03-26T13:08:43.643Z,32.40
2018-03-26T13:11:13.049Z,32.00
2018-03-26T13:13:43.180Z,29.80
2018-03-26T13:16:12.593Z,32.57
2018-03-26T13:18:41.113Z,33.27
2018-03-26T13:21:09.611Z,33.07
2018-03-26T13:23:38.257Z,33.27
2018-03-26T13:26:06.841Z,32.20
2018-03-26T13:28:35.533Z,33.57
2018-03-26T13:31:04.119Z,34.83
2018-03-26T13:33:32.811Z,35.10
2018-03-26T13:36:01.247Z,32.17
2018-03-26T13:38:29.507Z,32.10
2018-03-26T13:40:58.546Z,31.13
2018-03-26T13:43:26.809Z,32.57
2018-03-26T13:45:55.082Z,31.20
2018-03-26T13:48:23.394Z,29.77
2018-03-26T13:50:51.678Z,31.40
2018-03-26T13:53:19.922Z,31.57
2018-03-26T13:55:48.189Z,32.60
2018-03-26T13:58:17.251Z,29.83
2018-03-26T14:00:45.494Z,32.27
2018-03-26T14:03:13.770Z,33.40
2018-03-26T14:05:42.064Z,32.10
2018-03-26T14:08:22.391Z,30.73
2018-03-26T14:11:02.686Z,28.87
2018-03-26T14:16:28.786Z,29.80
2018-03-26T14:18:57.018Z,33.70
2018-03-26T14:21:25.307Z,31.63
2018-03-26T14:23:53.558Z,31.10
2018-03-26T14:26:21.826Z,32.20
2018-03-26T14:28:50.173Z,31.00
2018-03-26T14:31:18.435Z,31.37
2018-03-26T14:33:46.690Z,30.63
2018-03-26T14:36:15.714Z,33.40
2018-03-26T14:38:43.978Z,35.50
2018-03-26T14:41:12.264Z,34.20
2018-03-26T14:43:41.303Z,35.03
2018-03-26T14:46:09.593Z,35.90
2018-03-26T14:48:37.847Z,34.03
2018-03-26T14:51:06.108Z,32.80
2018-03-26T14:53:34.371Z,34.63
2018-03-26T14:56:05.046Z,32.80
2018-03-26T14:58:33.303Z,34.17
2018-03-26T15:01:02.337Z,33.83
2018-03-26T15:03:30.583Z,33.07
2018-03-26T15:05:59.700Z,33.37
2018-03-26T15:08:27.974Z,32.97
2018-03-26T15:10:56.243Z,29.50
2018-03-26T15:13:25.260Z,31.13
2018-03-26T15:15:53.583Z,31.70
2018-03-26T15:18:21.836Z,33.17
2018-03-26T15:20:50.085Z,30.93
2018-03-26T15:23:19.131Z,31.90
2018-03-26T15:25:47.407Z,30.60
2018-03-26T15:28:15.729Z,31.60
2018-03-26T15:30:44.091Z,30.70
2018-03-26T15:33:12.351Z,30.60
2018-03-26T15:35:40.627Z,33.33
2018-03-26T15:38:08.930Z,32.80
2018-03-26T15:40:37.189Z,33.60
2018-03-26T15:43:05.493Z,32.40
2018-03-26T15:45:33.734Z,33.80
2018-03-26T15:48:02.004Z,35.97
2018-03-26T15:50:31.177Z,37.97
2018-03-26T15:53:00.225Z,37.67
2018-03-26T15:55:28.489Z,37.40
2018-03-26T15:57:57.509Z,37.87
2018-03-26T16:00:25.774Z,37.30
2018-03-26T16:02:59.758Z,37.97
2018-03-26T16:05:28.067Z,37.10
2018-03-26T16:07:57.146Z,39.03
2018-03-26T16:10:25.517Z,37.67
2018-03-26T16:12:53.785Z,38.60
2018-03-26T16:15:22.105Z,36.40
2018-03-26T16:17:51.127Z,36.93
2018-03-26T16:20:19.379Z,38.10
2018-03-26T16:22:48.423Z,40.13
2018-03-26T16:25:16.684Z,39.43
2018-03-26T16:27:44.946Z,39.73
2018-03-26T16:30:13.998Z,37.23
2018-03-26T16:32:42.250Z,39.37
2018-03-26T16:35:10.520Z,36.53
2018-03-26T16:37:38.815Z,38.40
2018-03-26T16:40:07.186Z,37.60
2018-03-26T16:42:42.463Z,38.23
2018-03-26T16:45:10.728Z,38.17
2018-03-26T16:47:39.021Z,39.27
2018-03-26T16:50:07.295Z,41.10
2018-03-26T16:52:35.564Z,40.50
2018-03-26T16:55:03.814Z,37.13
2018-03-26T16:57:32.862Z,38.50
2018-03-26T17:00:01.132Z,36.40
2018-03-26T17:02:29.405Z,38.47
2018-03-26T17:04:57.662Z,37.30
2018-03-26T17:07:26.701Z,38.23
2018-03-26T17:09:55.778Z,38.73
2018-03-26T17:12:24.042Z,40.57
2018-03-26T17:14:52.358Z,38.60
2018-03-26T17:17:20.628Z,41.40
2018-03-26T17:19:48.871Z,39.57
2018-03-26T17:22:17.907Z,38.53
2018-03-26T17:24:46.514Z,39.33
2018-03-26T17:27:14.787Z,41.23
2018-03-26T17:29:43.078Z,39.77
2018-03-26T17:32:11.338Z,39.80
2018-03-26T17:34:39.591Z,37.63
2018-03-26T17:37:08.618Z,39.63
2018-03-26T17:39:36.875Z,36.80
2018-03-26T17:42:06.008Z,41.10
2018-03-26T17:44:34.267Z,36.50
2018-03-26T17:47:03.320Z,37.77
2018-03-26T17:49:31.822Z,38.60
2018-03-26T17:52:00.311Z,40.50
2018-03-26T17:54:28.569Z,37.53
2018-03-26T17:56:56.840Z,38.00
2018-03-26T17:59:25.112Z,39.78
2018-03-26T18:01:53.563Z,39.97
2018-03-26T18:04:22.622Z,40.27
2018-03-26T18:06:50.917Z,37.50
2018-03-26T18:11:39.968Z,38.67
2018-03-26T18:14:08.241Z,39.20
2018-03-26T18:16:36.503Z,40.33
2018-03-26T18:19:05.543Z,37.10
2018-03-26T18:21:33.808Z,37.00
2018-03-26T18:24:02.086Z,36.00
2018-03-26T18:26:31.173Z,37.10
2018-03-26T18:28:59.454Z,38.87
2018-03-26T18:31:27.715Z,39.10
2018-03-26T18:33:56.763Z,38.40
2018-03-26T18:36:25.004Z,39.33
2018-03-26T18:38:53.274Z,38.63
2018-03-26T18:41:22.297Z,41.00
2018-03-26T18:43:50.582Z,38.87
2018-03-26T18:46:18.850Z,37.97
2018-03-26T18:48:47.118Z,38.67
2018-03-26T18:51:16.177Z,40.33
2018-03-26T18:53:44.446Z,38.03
2018-03-26T18:56:12.756Z,37.40
2018-03-26T18:58:41.036Z,39.10
2018-03-26T19:01:10.807Z,40.20
2018-03-26T19:03:39.069Z,42.13
2018-03-26T19:06:07.374Z,41.63
2018-03-26T19:08:35.649Z,38.47
2018-03-26T19:11:03.910Z,38.50
2018-03-26T19:13:32.978Z,38.70
2018-03-26T19:16:01.220Z,41.00
2018-03-26T19:18:29.509Z,40.93
2018-03-26T19:20:57.745Z,38.80
2018-03-26T19:23:26.791Z,41.33
2018-03-26T19:25:55.047Z,39.03
2018-03-26T19:28:23.338Z,38.30
2018-03-26T19:31:00.201Z,39.17
2018-03-26T19:33:29.222Z,36.93
2018-03-26T19:35:57.485Z,41.90
2018-03-26T19:38:25.761Z,37.83
2018-03-26T19:40:54.774Z,39.23
2018-03-26T19:43:23.080Z,40.97
2018-03-26T19:45:51.338Z,38.83
2018-03-26T19:48:19.773Z,39.73
2018-03-26T19:50:48.035Z,38.67
2018-03-26T19:53:16.301Z,38.73
2018-03-26T19:55:44.574Z,39.77
2018-03-26T19:58:12.875Z,36.33
2018-03-26T20:00:41.163Z,29.00
2018-03-26T20:03:09.447Z,24.57
2018-03-26T20:05:37.705Z,24.67
2018-03-26T20:08:05.970Z,20.90
2018-03-26T20:10:34.251Z,19.83
2018-03-26T20:13:03.255Z,17.63
2018-03-26T20:15:31.517Z,16.23
2018-03-26T20:17:59.785Z,16.37
2018-03-26T20:20:28.023Z,14.67
2018-03-26T20:22:56.892Z,15.20
2018-03-26T20:25:25.147Z,13.80
2018-03-26T20:27:54.185Z,14.10
2018-03-26T20:30:22.444Z,12.90
2018-03-26T20:32:50.711Z,13.17
2018-03-26T20:35:19.738Z,11.93
2018-03-26T20:37:47.989Z,11.57
2018-03-26T20:40:17.125Z,12.20
2018-03-26T20:42:45.384Z,12.03
2018-03-26T20:45:13.641Z,12.13
2018-03-26T20:47:42.696Z,12.10
2018-03-26T20:50:10.984Z,12.80
2018-03-26T20:52:39.234Z,11.43
2018-03-26T20:55:07.573Z,11.20
2018-03-26T20:57:35.783Z,11.33
2018-03-26T21:00:04.045Z,11.60
2018-03-26T21:02:33.089Z,10.67
2018-03-26T21:05:01.353Z,11.57
2018-03-26T21:07:29.606Z,11.40
2018-03-26T21:09:58.640Z,10.50
2018-03-26T21:12:26.889Z,11.43
2018-03-26T21:14:55.919Z,10.20
2018-03-26T21:17:24.174Z,11.10
2018-03-26T21:19:53.299Z,10.53
2018-03-26T21:22:21.546Z,8.60
2018-03-26T21:24:50.590Z,9.33
2018-03-26T21:27:18.826Z,9.10
2018-03-26T21:29:47.868Z,9.23
2018-03-26T21:32:16.120Z,9.00
2018-03-26T21:34:44.418Z,14.20
2018-03-26T21:37:12.670Z,14.40
2018-03-26T21:39:44.193Z,13.70
2018-03-26T21:42:12.498Z,14.27
2018-03-26T21:44:40.746Z,13.43
2018-03-26T21:47:09.016Z,12.40
2018-03-26T21:49:37.282Z,11.27
2018-03-26T21:52:06.306Z,12.03
2018-03-26T21:54:34.572Z,10.83
2018-03-26T21:57:02.890Z,11.57
2018-03-26T21:59:31.172Z,11.67
2018-03-26T22:01:59.442Z,10.00
2018-03-26T22:04:27.682Z,11.27
2018-03-26T22:06:56.005Z,11.07
2018-03-26T22:09:24.253Z,11.97
2018-03-26T22:11:52.523Z,12.20
2018-03-26T22:14:20.770Z,10.87
2018-03-26T22:16:49.031Z,10.93
2018-03-26T22:19:17.290Z,11.57
2018-03-26T22:21:45.562Z,11.97
2018-03-26T22:24:13.858Z,10.57
2018-03-26T22:26:42.162Z,11.40
2018-03-26T22:29:10.526Z,11.07
2018-03-26T22:31:38.778Z,11.20
2018-03-26T22:34:07.036Z,9.73
2018-03-26T22:36:36.100Z,9.23
2018-03-26T22:39:04.359Z,9.90
2018-03-26T22:41:32.611Z,10.73
2018-03-26T22:44:00.872Z,9.90
2018-03-26T22:46:29.202Z,10.37
2018-03-26T22:48:57.463Z,11.10
2018-03-26T22:51:25.701Z,12.47
2018-03-26T22:53:54.046Z,13.37
2018-03-26T22:56:22.297Z,13.37
2018-03-26T22:58:50.590Z,13.10
2018-03-26T23:01:18.843Z,12.37
2018-03-26T23:03:47.867Z,12.17
2018-03-26T23:06:16.165Z,12.27
2018-03-26T23:08:44.485Z,10.33
2018-03-26T23:11:12.727Z,10.80
2018-03-26T23:13:40.986Z,11.30
2018-03-26T23:16:09.273Z,11.30
2018-03-26T23:18:37.559Z,10.27
2018-03-26T23:21:05.807Z,10.83
2018-03-26T23:23:34.835Z,10.90
2018-03-26T23:26:03.129Z,10.47
2018-03-26T23:28:31.381Z,10.73
2018-03-26T23:30:59.686Z,11.30
2018-03-26T23:33:27.943Z,11.13
2018-03-26T23:35:56.258Z,10.63
2018-03-26T23:38:24.533Z,11.87
2018-03-26T23:40:52.800Z,11.23
2018-03-26T23:43:21.043Z,12.63
2018-03-26T23:45:50.084Z,10.50
2018-03-26T23:48:19.138Z,11.90
2018-03-26T23:50:48.189Z,11.83
2018-03-26T23:53:16.439Z,11.27
2018-03-26T23:55:45.573Z,12.80
2018-03-26T23:58:13.860Z,12.13
